createdAt,value
2018-04-20T00:00:58.613Z,0.00
2018-04-20T00:01:58.623Z,0.00
2018-04-20T00:02:58.633Z,0.00
2018-04-20T00:03:58.652Z,0.00
2018-04-20T00:04:58.674Z,0.00
2018-04-20T00:05:58.711Z,0.00
2018-04-20T00:06:58.717Z,0.00
2018-04-20T00:07:58.739Z,0.00
2018-04-20T00:08:58.759Z,0.00
2018-04-20T00:09:58.780Z,0.00
2018-04-20T00:10:58.802Z,0.00
2018-04-20T00:11:58.834Z,0.00
2018-04-20T00:12:58.846Z,0.00
2018-04-20T00:13:58.866Z,0.00
2018-04-20T00:14:58.888Z,0.00
2018-04-20T00:15:58.910Z,0.00
2018-04-20T00:16:58.930Z,0.00
2018-04-20T00:17:58.952Z,0.00
2018-04-20T00:18:58.973Z,0.00
2018-04-20T00:19:58.995Z,0.00
2018-04-20T00:20:59.017Z,0.00
2018-04-20T00:21:59.037Z,0.00
2018-04-20T00:22:59.059Z,0.00
2018-04-20T00:23:59.080Z,0.00
2018-04-20T00:24:59.104Z,0.00
2018-04-20T00:25:59.123Z,0.00
2018-04-20T00:26:59.144Z,0.00
2018-04-20T00:27:59.166Z,0.00
2018-04-20T00:28:59.187Z,0.00
2018-04-20T00:29:59.209Z,0.00
2018-04-20T00:30:59.219Z,0.00
2018-04-20T00:31:59.239Z,0.00
2018-04-20T00:32:59.261Z,0.00
2018-04-20T00:33:59.285Z,0.00
2018-04-20T00:34:59.302Z,0.00
2018-04-20T00:35:59.324Z,0.00
2018-04-20T00:36:59.349Z,0.00
2018-04-20T00:37:59.367Z,0.00
2018-04-20T00:38:59.387Z,0.00
2018-04-20T00:39:59.422Z,0.00
2018-04-20T00:40:59.430Z,0.00
2018-04-20T00:41:59.455Z,0.00
2018-04-20T00:42:59.481Z,0.00
2018-04-20T00:43:59.497Z,0.00
2018-04-20T00:44:59.516Z,0.00
2018-04-20T00:45:59.537Z,0.00
2018-04-20T00:46:59.559Z,0.00
2018-04-20T00:47:59.583Z,0.00
2018-04-20T00:48:59.615Z,0.00
2018-04-20T00:49:59.627Z,0.00
2018-04-20T00:50:59.633Z,0.00
2018-04-20T00:51:59.655Z,0.00
2018-04-20T00:52:59.675Z,0.00
2018-04-20T00:53:59.700Z,0.00
2018-04-20T00:54:59.717Z,0.00
2018-04-20T00:55:59.740Z,0.00
2018-04-20T00:56:59.762Z,0.00
2018-04-20T00:57:59.782Z,0.00
2018-04-20T00:58:59.803Z,0.00
2018-04-20T00:59:59.825Z,0.00
2018-04-20T01:00:59.847Z,0.00
2018-04-20T01:01:59.867Z,0.00
2018-04-20T01:02:59.893Z,0.00
2018-04-20T01:03:59.911Z,0.00
2018-04-20T01:04:59.921Z,0.00
2018-04-20T01:05:59.942Z,0.00
2018-04-20T01:06:59.962Z,0.00
2018-04-20T01:07:59.983Z,0.00
2018-04-20T01:09:00.004Z,0.00
2018-04-20T01:10:00.026Z,0.00
2018-04-20T01:11:00.061Z,0.00
2018-04-20T01:12:00.067Z,0.00
2018-04-20T01:13:00.090Z,0.00
2018-04-20T01:14:00.110Z,0.00
2018-04-20T01:15:00.132Z,0.00
2018-04-20T01:16:00.152Z,0.00
2018-04-20T01:17:00.163Z,0.00
2018-04-20T01:18:00.184Z,0.00
2018-04-20T01:19:00.205Z,0.00
2018-04-20T01:20:00.226Z,0.00
2018-04-20T01:21:00.250Z,0.00
2018-04-20T01:22:00.268Z,0.00
2018-04-20T01:23:00.290Z,0.00
2018-04-20T01:24:00.311Z,0.00
2018-04-20T01:25:00.333Z,0.00
2018-04-20T01:26:00.354Z,0.00
2018-04-20T01:27:00.376Z,0.00
2018-04-20T01:28:00.385Z,0.00
2018-04-20T01:29:00.405Z,0.00
2018-04-20T01:30:00.488Z,0.00
2018-04-20T01:31:00.447Z,0.00
2018-04-20T01:32:00.469Z,0.00
2018-04-20T01:33:00.491Z,0.00
2018-04-20T01:34:00.515Z,0.00
2018-04-20T01:35:00.533Z,0.00
2018-04-20T01:36:00.554Z,0.00
2018-04-20T01:37:00.575Z,0.00
2018-04-20T01:38:00.597Z,0.00
2018-04-20T01:39:00.607Z,0.00
2018-04-20T01:40:00.628Z,0.00
2018-04-20T01:41:00.648Z,0.00
2018-04-20T01:42:00.671Z,0.00
2018-04-20T01:43:00.692Z,0.00
2018-04-20T01:44:00.714Z,0.00
2018-04-20T01:45:00.734Z,0.00
2018-04-20T01:46:00.764Z,0.00
2018-04-20T01:47:00.777Z,0.00
2018-04-20T01:48:00.787Z,0.00
2018-04-20T01:49:00.806Z,0.00
2018-04-20T01:50:00.828Z,0.00
2018-04-20T01:51:00.864Z,0.00
2018-04-20T01:52:00.873Z,0.00
2018-04-20T01:53:00.891Z,0.00
2018-04-20T01:54:00.913Z,0.00
2018-04-20T01:55:00.934Z,0.00
2018-04-20T01:56:00.955Z,0.00
2018-04-20T01:57:00.978Z,0.00
2018-04-20T01:58:00.987Z,0.00
2018-04-20T01:59:01.008Z,0.00
2018-04-20T02:00:01.029Z,0.00
2018-04-20T02:01:01.055Z,0.00
2018-04-20T02:02:01.072Z,0.00
2018-04-20T02:03:01.094Z,0.00
2018-04-20T02:04:01.115Z,0.00
2018-04-20T02:05:01.141Z,0.00
2018-04-20T02:06:01.158Z,0.00
2018-04-20T02:07:01.167Z,0.00
2018-04-20T02:08:01.188Z,0.00
2018-04-20T02:09:01.209Z,0.00
2018-04-20T02:10:01.233Z,0.00
2018-04-20T02:11:01.253Z,0.00
2018-04-20T02:12:01.296Z,0.00
2018-04-20T02:13:01.310Z,0.00
2018-04-20T02:14:01.317Z,0.00
2018-04-20T02:15:01.327Z,0.00
2018-04-20T02:16:01.349Z,0.00
2018-04-20T02:17:01.372Z,0.00
2018-04-20T02:18:01.392Z,0.00
2018-04-20T02:19:01.413Z,0.00
2018-04-20T02:20:01.450Z,0.00
2018-04-20T02:21:01.456Z,0.00
2018-04-20T02:22:01.491Z,0.00
2018-04-20T02:23:01.498Z,0.00
2018-04-20T02:24:01.508Z,0.00
2018-04-20T02:25:01.534Z,0.00
2018-04-20T02:26:01.549Z,0.00
2018-04-20T02:27:01.574Z,0.00
2018-04-20T02:28:01.595Z,0.00
2018-04-20T02:29:01.614Z,0.00
2018-04-20T02:30:01.637Z,0.00
2018-04-20T02:31:01.683Z,0.00
2018-04-20T02:32:01.667Z,0.00
2018-04-20T02:33:01.688Z,0.00
2018-04-20T02:34:01.722Z,0.00
2018-04-20T02:35:01.731Z,0.00
2018-04-20T02:36:01.756Z,0.00
2018-04-20T02:37:01.776Z,0.00
2018-04-20T02:38:01.800Z,0.00
2018-04-20T02:39:01.816Z,0.00
2018-04-20T02:40:01.825Z,0.00
2018-04-20T02:41:01.846Z,0.00
2018-04-20T02:42:01.875Z,0.00
2018-04-20T02:43:01.888Z,0.00
2018-04-20T02:44:01.923Z,0.00
2018-04-20T02:45:01.935Z,0.00
2018-04-20T02:46:01.953Z,0.00
2018-04-20T02:47:01.965Z,0.00
2018-04-20T02:48:01.985Z,0.00
2018-04-20T02:49:02.014Z,0.00
2018-04-20T02:50:02.027Z,0.00
2018-04-20T02:51:02.050Z,0.00
2018-04-20T02:52:02.070Z,0.00
2018-04-20T02:53:02.092Z,0.00
2018-04-20T02:54:02.114Z,0.00
2018-04-20T02:55:02.129Z,0.00
2018-04-20T02:56:02.142Z,0.00
2018-04-20T02:57:02.177Z,0.00
2018-04-20T02:58:02.190Z,0.00
2018-04-20T02:59:02.209Z,0.00
2018-04-20T03:00:02.229Z,0.00
2018-04-20T03:01:02.250Z,0.00
2018-04-20T03:02:02.271Z,0.00
2018-04-20T03:03:02.279Z,0.00
2018-04-20T03:04:02.305Z,0.00
2018-04-20T03:05:02.322Z,0.00
2018-04-20T03:06:02.351Z,0.00
2018-04-20T03:07:02.366Z,0.00
2018-04-20T03:08:02.386Z,0.00
2018-04-20T03:09:02.411Z,0.00
2018-04-20T03:10:02.418Z,0.00
2018-04-20T03:11:02.439Z,0.00
2018-04-20T03:12:02.459Z,0.00
2018-04-20T03:13:02.483Z,0.00
2018-04-20T03:14:02.501Z,0.00
2018-04-20T03:15:02.523Z,0.00
2018-04-20T03:16:02.544Z,0.00
2018-04-20T03:17:02.554Z,0.00
2018-04-20T03:18:02.576Z,0.00
2018-04-20T03:19:02.599Z,0.00
2018-04-20T03:20:02.618Z,0.00
2018-04-20T03:21:02.639Z,0.00
2018-04-20T03:22:02.663Z,0.00
2018-04-20T03:23:02.671Z,0.00
2018-04-20T03:24:02.691Z,0.00
2018-04-20T03:25:02.712Z,0.00
2018-04-20T03:26:02.733Z,0.00
2018-04-20T03:27:02.765Z,0.00
2018-04-20T03:28:02.790Z,0.00
2018-04-20T03:29:02.799Z,0.00
2018-04-20T03:30:02.820Z,0.00
2018-04-20T03:31:03.130Z,0.00
2018-04-20T03:32:02.850Z,0.00
2018-04-20T03:33:02.872Z,0.00
2018-04-20T03:34:02.893Z,0.00
2018-04-20T03:35:02.915Z,0.00
2018-04-20T03:36:03.186Z,0.00
2018-04-20T03:37:02.946Z,0.00
2018-04-20T03:38:02.966Z,0.00
2018-04-20T03:39:02.987Z,0.00
2018-04-20T03:40:03.009Z,0.00
2018-04-20T03:41:03.044Z,0.00
2018-04-20T03:42:03.052Z,0.00
2018-04-20T03:43:03.075Z,0.00
2018-04-20T03:44:03.082Z,0.00
2018-04-20T03:45:03.103Z,0.00
2018-04-20T03:46:03.128Z,0.00
2018-04-20T03:47:03.147Z,0.00
2018-04-20T03:48:03.169Z,5.63
2018-04-20T03:49:03.190Z,5.63
2018-04-20T03:50:03.211Z,5.63
2018-04-20T03:51:03.219Z,5.63
2018-04-20T03:52:03.240Z,5.63
2018-04-20T03:53:03.261Z,5.63
2018-04-20T03:54:03.288Z,5.63
2018-04-20T03:55:03.305Z,11.25
2018-04-20T03:56:03.325Z,11.25
2018-04-20T03:57:03.335Z,11.25
2018-04-20T03:58:03.357Z,11.25
2018-04-20T03:59:03.379Z,11.25
2018-04-20T04:00:03.400Z,16.88
2018-04-20T04:01:03.424Z,16.88
2018-04-20T04:02:03.442Z,16.88
2018-04-20T04:03:03.522Z,16.88
2018-04-20T04:04:03.472Z,22.50
2018-04-20T04:05:03.492Z,22.50
2018-04-20T04:06:03.514Z,22.50
2018-04-20T04:07:03.535Z,28.13
2018-04-20T04:08:03.556Z,28.13
2018-04-20T04:09:03.583Z,28.13
2018-04-20T04:10:03.589Z,33.75
2018-04-20T04:11:03.609Z,33.75
2018-04-20T04:12:03.636Z,33.75
2018-04-20T04:13:03.652Z,39.38
2018-04-20T04:14:03.673Z,39.38
2018-04-20T04:15:03.695Z,39.38
2018-04-20T04:16:03.716Z,45.00
2018-04-20T04:17:03.724Z,45.00
2018-04-20T04:18:03.804Z,50.63
2018-04-20T04:19:03.767Z,50.63
2018-04-20T04:20:03.789Z,50.63
2018-04-20T04:21:03.810Z,56.25
2018-04-20T04:22:03.831Z,56.25
2018-04-20T04:23:03.841Z,56.25
2018-04-20T04:24:03.862Z,61.88
2018-04-20T04:25:03.884Z,61.88
2018-04-20T04:26:03.905Z,67.50
2018-04-20T04:27:03.926Z,67.50
2018-04-20T04:28:03.947Z,73.13
2018-04-20T04:29:03.969Z,73.13
2018-04-20T04:30:03.977Z,78.75
2018-04-20T04:31:03.999Z,78.75
2018-04-20T04:32:04.020Z,78.75
2018-04-20T04:33:04.041Z,84.38
2018-04-20T04:34:04.063Z,84.38
2018-04-20T04:35:04.087Z,90.00
2018-04-20T04:36:04.094Z,90.00
2018-04-20T04:37:04.115Z,95.63
2018-04-20T04:38:04.137Z,101.25
2018-04-20T04:39:04.158Z,101.25
2018-04-20T04:40:04.180Z,101.25
2018-04-20T04:41:04.208Z,101.25
2018-04-20T04:42:04.222Z,106.88
2018-04-20T04:43:04.234Z,106.88
2018-04-20T04:44:04.251Z,112.50
2018-04-20T04:45:04.276Z,112.50
2018-04-20T04:46:04.294Z,112.50
2018-04-20T04:47:04.318Z,112.50
2018-04-20T04:48:04.341Z,118.13
2018-04-20T04:49:04.358Z,118.13
2018-04-20T04:50:04.379Z,118.13
2018-04-20T04:51:04.389Z,118.13
2018-04-20T04:52:04.414Z,123.75
2018-04-20T04:53:04.432Z,123.75
2018-04-20T04:54:04.454Z,123.75
2018-04-20T04:55:04.475Z,123.75
2018-04-20T04:56:04.495Z,129.38
2018-04-20T04:57:04.517Z,129.38
2018-04-20T04:58:04.527Z,135.00
2018-04-20T04:59:04.547Z,140.63
2018-04-20T05:00:04.568Z,140.63
2018-04-20T05:01:04.589Z,146.25
2018-04-20T05:02:04.610Z,151.88
2018-04-20T05:03:04.635Z,151.88
2018-04-20T05:04:04.654Z,157.50
2018-04-20T05:05:04.675Z,157.50
2018-04-20T05:06:04.697Z,163.13
2018-04-20T05:07:04.707Z,163.13
2018-04-20T05:08:04.731Z,168.75
2018-04-20T05:09:04.786Z,174.38
2018-04-20T05:10:04.770Z,174.38
2018-04-20T05:11:04.790Z,180.00
2018-04-20T05:12:04.813Z,185.63
2018-04-20T05:13:04.834Z,185.63
2018-04-20T05:14:04.856Z,191.25
2018-04-20T05:15:04.865Z,196.88
2018-04-20T05:16:04.888Z,196.88
2018-04-20T05:17:04.907Z,196.88
2018-04-20T05:18:04.928Z,196.88
2018-04-20T05:19:04.962Z,196.88
2018-04-20T05:20:04.971Z,191.25
2018-04-20T05:21:04.992Z,191.25
2018-04-20T05:22:05.013Z,191.25
2018-04-20T05:23:05.036Z,191.25
2018-04-20T05:24:05.063Z,196.88
2018-04-20T05:25:05.078Z,208.13
2018-04-20T05:26:05.100Z,202.50
2018-04-20T05:27:05.109Z,208.13
2018-04-20T05:28:05.131Z,213.75
2018-04-20T05:29:05.151Z,213.75
2018-04-20T05:30:05.173Z,219.38
2018-04-20T05:31:05.195Z,225.00
2018-04-20T05:32:05.223Z,230.63
2018-04-20T05:33:05.238Z,230.63
2018-04-20T05:34:05.258Z,236.25
2018-04-20T05:35:05.280Z,241.88
2018-04-20T05:36:05.301Z,241.88
2018-04-20T05:37:05.322Z,247.50
2018-04-20T05:38:05.336Z,247.50
2018-04-20T05:39:05.352Z,253.13
2018-04-20T05:40:05.386Z,253.13
2018-04-20T05:41:05.394Z,253.13
2018-04-20T05:42:05.416Z,253.13
2018-04-20T05:43:05.438Z,258.75
2018-04-20T05:44:05.459Z,258.75
2018-04-20T05:45:05.481Z,264.38
2018-04-20T05:46:05.501Z,275.63
2018-04-20T05:47:05.522Z,286.88
2018-04-20T05:48:05.544Z,292.50
2018-04-20T05:49:05.578Z,281.25
2018-04-20T05:50:05.587Z,275.63
2018-04-20T05:51:05.607Z,281.25
2018-04-20T05:52:05.630Z,275.63
2018-04-20T05:53:05.651Z,270.00
2018-04-20T05:54:05.664Z,270.00
2018-04-20T05:55:05.682Z,281.25
2018-04-20T05:56:05.704Z,286.88
2018-04-20T05:57:05.724Z,286.88
2018-04-20T05:58:05.748Z,292.50
2018-04-20T05:59:05.767Z,298.13
2018-04-20T06:00:05.789Z,337.50
2018-04-20T06:01:05.840Z,360.00
2018-04-20T06:02:05.832Z,371.25
2018-04-20T06:03:05.859Z,360.00
2018-04-20T06:04:05.874Z,376.88
2018-04-20T06:05:05.896Z,399.38
2018-04-20T06:06:05.918Z,421.88
2018-04-20T06:07:05.960Z,365.63
2018-04-20T06:08:05.960Z,393.75
2018-04-20T06:09:05.981Z,438.75
2018-04-20T06:10:06.003Z,405.00
2018-04-20T06:11:06.025Z,360.00
2018-04-20T06:12:06.050Z,388.13
2018-04-20T06:13:06.067Z,405.00
2018-04-20T06:14:06.091Z,461.25
2018-04-20T06:15:06.110Z,483.75
2018-04-20T06:16:06.131Z,478.13
2018-04-20T06:17:06.153Z,568.13
2018-04-20T06:18:06.174Z,708.75
2018-04-20T06:19:06.195Z,742.50
2018-04-20T06:20:06.217Z,883.13
2018-04-20T06:21:06.243Z,1080.00
2018-04-20T06:22:06.259Z,1147.50
2018-04-20T06:23:06.280Z,1265.63
2018-04-20T06:24:06.302Z,1282.50
2018-04-20T06:25:06.324Z,1282.50
2018-04-20T06:26:06.346Z,1338.75
2018-04-20T06:27:06.366Z,1361.25
2018-04-20T06:28:06.388Z,1378.13
2018-04-20T06:29:06.409Z,1423.13
2018-04-20T06:30:06.436Z,1451.25
2018-04-20T06:31:06.463Z,1440.00
2018-04-20T06:32:06.485Z,1456.88
2018-04-20T06:33:06.506Z,1468.13
2018-04-20T06:34:06.544Z,1490.63
2018-04-20T06:35:06.549Z,1473.75
2018-04-20T06:36:06.571Z,1451.25
2018-04-20T06:37:06.593Z,1445.63
2018-04-20T06:38:06.629Z,1456.88
2018-04-20T06:39:06.648Z,1485.00
2018-04-20T06:40:06.668Z,1468.13
2018-04-20T06:41:06.690Z,1445.63
2018-04-20T06:42:06.737Z,1456.88
2018-04-20T06:43:06.744Z,1479.38
2018-04-20T06:44:06.767Z,1490.63
2018-04-20T06:45:06.789Z,1513.13
2018-04-20T06:46:06.823Z,1490.63
2018-04-20T06:47:06.845Z,1473.75
2018-04-20T06:48:06.866Z,1490.63
2018-04-20T06:49:06.903Z,1501.88
2018-04-20T06:50:06.920Z,1518.75
2018-04-20T06:51:06.941Z,1524.38
2018-04-20T06:52:06.964Z,1530.00
2018-04-20T06:53:06.997Z,1513.13
2018-04-20T06:54:07.019Z,1552.50
2018-04-20T06:55:07.051Z,1552.50
2018-04-20T06:56:07.112Z,1546.88
2018-04-20T06:57:07.096Z,1552.50
2018-04-20T06:58:07.130Z,1575.00
2018-04-20T06:59:07.151Z,1608.75
2018-04-20T07:00:07.192Z,1620.00
2018-04-20T07:01:07.206Z,1642.50
2018-04-20T07:02:07.227Z,1648.13
2018-04-20T07:03:07.261Z,1665.00
2018-04-20T07:04:07.328Z,1687.50
2018-04-20T07:05:07.316Z,1665.00
2018-04-20T07:06:07.337Z,1665.00
2018-04-20T07:07:07.372Z,1670.63
2018-04-20T07:08:07.393Z,1681.88
2018-04-20T07:09:07.426Z,1676.25
2018-04-20T07:10:07.448Z,1715.63
2018-04-20T07:11:07.482Z,1760.63
2018-04-20T07:12:07.511Z,1783.13
2018-04-20T07:13:07.536Z,1788.75
2018-04-20T07:14:07.559Z,1794.38
2018-04-20T07:15:07.593Z,1822.50
2018-04-20T07:16:07.614Z,1867.50
2018-04-20T07:17:07.647Z,1845.00
2018-04-20T07:18:07.669Z,1839.38
2018-04-20T07:19:07.704Z,1738.13
2018-04-20T07:20:07.737Z,1800.00
2018-04-20T07:21:07.771Z,1861.88
2018-04-20T07:22:07.796Z,1890.00
2018-04-20T07:23:07.814Z,1912.50
2018-04-20T07:24:07.847Z,1946.25
2018-04-20T07:25:07.882Z,1923.75
2018-04-20T07:26:07.903Z,1929.38
2018-04-20T07:27:07.939Z,1996.88
2018-04-20T07:28:07.958Z,2047.50
2018-04-20T07:29:07.991Z,1996.88
2018-04-20T07:30:08.031Z,1991.25
2018-04-20T07:31:08.060Z,2013.75
2018-04-20T07:32:08.081Z,2041.88
2018-04-20T07:33:08.114Z,2030.63
2018-04-20T07:34:08.136Z,2058.75
2018-04-20T07:35:08.170Z,2075.63
2018-04-20T07:36:08.203Z,2148.75
2018-04-20T07:37:08.229Z,2126.25
2018-04-20T07:38:08.259Z,2126.25
2018-04-20T07:39:08.293Z,2103.75
2018-04-20T07:40:08.328Z,2176.88
2018-04-20T07:41:08.349Z,2221.88
2018-04-20T07:42:08.382Z,2171.25
2018-04-20T07:43:08.417Z,2193.75
2018-04-20T07:44:08.449Z,2244.38
2018-04-20T07:45:08.476Z,2289.38
2018-04-20T07:46:08.507Z,2430.00
2018-04-20T07:47:08.539Z,2300.63
2018-04-20T07:48:08.575Z,2368.13
2018-04-20T07:49:08.595Z,2407.50
2018-04-20T07:50:08.627Z,2356.88
2018-04-20T07:51:08.663Z,2334.38
2018-04-20T07:52:08.696Z,2385.00
2018-04-20T07:53:08.731Z,2441.25
2018-04-20T07:54:08.751Z,2424.38
2018-04-20T07:55:08.797Z,2446.88
2018-04-20T07:56:08.819Z,2452.50
2018-04-20T07:57:08.853Z,2452.50
2018-04-20T07:58:08.887Z,2401.88
2018-04-20T07:59:08.920Z,2289.38
2018-04-20T08:00:08.944Z,2289.38
2018-04-20T08:01:08.977Z,1546.88
2018-04-20T08:02:09.009Z,618.75
2018-04-20T08:03:09.044Z,528.75
2018-04-20T08:04:09.077Z,523.13
2018-04-20T08:05:09.112Z,517.50
2018-04-20T08:06:09.145Z,517.50
2018-04-20T08:07:09.180Z,511.88
2018-04-20T08:08:09.201Z,506.25
2018-04-20T08:09:09.234Z,511.88
2018-04-20T08:10:09.269Z,517.50
2018-04-20T08:11:09.305Z,517.50
2018-04-20T08:12:09.336Z,517.50
2018-04-20T08:13:09.358Z,517.50
2018-04-20T08:14:09.390Z,517.50
2018-04-20T08:15:09.432Z,523.13
2018-04-20T08:16:09.459Z,523.13
2018-04-20T08:17:09.480Z,528.75
2018-04-20T08:18:09.514Z,534.38
2018-04-20T08:19:09.560Z,534.38
2018-04-20T08:20:09.641Z,534.38
2018-04-20T08:21:09.603Z,540.00
2018-04-20T08:22:09.637Z,540.00
2018-04-20T08:23:09.658Z,545.63
2018-04-20T08:24:09.692Z,545.63
2018-04-20T08:25:09.715Z,551.25
2018-04-20T08:26:09.750Z,551.25
2018-04-20T08:27:09.771Z,551.25
2018-04-20T08:28:09.804Z,551.25
2018-04-20T08:29:09.838Z,556.88
2018-04-20T08:30:09.859Z,556.88
2018-04-20T08:31:09.893Z,556.88
2018-04-20T08:32:09.915Z,556.88
2018-04-20T08:33:09.947Z,562.50
2018-04-20T08:34:10.029Z,556.88
2018-04-20T08:35:10.003Z,556.88
2018-04-20T08:36:10.038Z,551.25
2018-04-20T08:37:10.058Z,551.25
2018-04-20T08:38:10.098Z,551.25
2018-04-20T08:39:10.114Z,551.25
2018-04-20T08:40:10.164Z,551.25
2018-04-20T08:41:10.170Z,556.88
2018-04-20T08:42:10.203Z,556.88
2018-04-20T08:43:10.224Z,556.88
2018-04-20T08:44:10.258Z,556.88
2018-04-20T08:45:10.281Z,562.50
2018-04-20T08:46:10.319Z,562.50
2018-04-20T08:47:10.340Z,562.50
2018-04-20T08:48:10.367Z,556.88
2018-04-20T08:49:10.391Z,556.88
2018-04-20T08:50:10.428Z,568.13
2018-04-20T08:51:10.446Z,562.50
2018-04-20T08:52:10.482Z,562.50
2018-04-20T08:53:10.500Z,568.13
2018-04-20T08:54:10.534Z,562.50
2018-04-20T08:55:10.556Z,562.50
2018-04-20T08:56:10.589Z,562.50
2018-04-20T08:57:10.611Z,562.50
2018-04-20T08:58:10.644Z,556.88
2018-04-20T08:59:10.668Z,556.88
2018-04-20T09:00:10.703Z,556.88
2018-04-20T09:01:10.722Z,568.13
2018-04-20T09:02:10.755Z,562.50
2018-04-20T09:03:10.788Z,568.13
2018-04-20T09:04:10.810Z,562.50
2018-04-20T09:05:10.834Z,562.50
2018-04-20T09:06:10.866Z,562.50
2018-04-20T09:07:10.887Z,562.50
2018-04-20T09:08:10.921Z,562.50
2018-04-20T09:09:10.942Z,568.13
2018-04-20T09:10:10.977Z,562.50
2018-04-20T09:11:10.998Z,562.50
2018-04-20T09:12:11.030Z,562.50
2018-04-20T09:13:11.053Z,556.88
2018-04-20T09:14:11.088Z,562.50
2018-04-20T09:15:11.109Z,556.88
2018-04-20T09:16:11.141Z,556.88
2018-04-20T09:17:11.163Z,556.88
2018-04-20T09:18:11.198Z,556.88
2018-04-20T09:19:11.219Z,556.88
2018-04-20T09:20:11.254Z,556.88
2018-04-20T09:21:11.274Z,556.88
2018-04-20T09:22:11.308Z,556.88
2018-04-20T09:23:11.329Z,556.88
2018-04-20T09:24:11.368Z,556.88
2018-04-20T09:25:11.390Z,562.50
2018-04-20T09:26:11.419Z,568.13
2018-04-20T09:27:11.442Z,562.50
2018-04-20T09:28:11.473Z,562.50
2018-04-20T09:29:11.507Z,562.50
2018-04-20T09:30:11.528Z,562.50
2018-04-20T09:31:11.550Z,562.50
2018-04-20T09:32:11.585Z,562.50
2018-04-20T09:33:11.606Z,562.50
2018-04-20T09:34:11.639Z,562.50
2018-04-20T09:35:11.673Z,556.88
2018-04-20T09:36:11.694Z,556.88
2018-04-20T09:37:11.729Z,556.88
2018-04-20T09:38:11.750Z,556.88
2018-04-20T09:39:11.783Z,556.88
2018-04-20T09:40:11.805Z,556.88
2018-04-20T09:41:11.839Z,556.88
2018-04-20T09:42:11.860Z,556.88
2018-04-20T09:43:11.895Z,556.88
2018-04-20T09:44:11.915Z,556.88
2018-04-20T09:45:11.950Z,556.88
2018-04-20T09:46:12.020Z,562.50
2018-04-20T09:47:12.005Z,556.88
2018-04-20T09:48:12.026Z,556.88
2018-04-20T09:49:12.061Z,556.88
2018-04-20T09:50:12.096Z,556.88
2018-04-20T09:51:12.115Z,556.88
2018-04-20T09:52:12.150Z,556.88
2018-04-20T09:53:12.171Z,556.88
2018-04-20T09:54:12.204Z,551.25
2018-04-20T09:55:12.225Z,556.88
2018-04-20T09:56:12.263Z,562.50
2018-04-20T09:57:12.283Z,568.13
2018-04-20T09:58:12.315Z,562.50
2018-04-20T09:59:12.338Z,556.88
2018-04-20T10:00:12.373Z,562.50
2018-04-20T10:01:12.392Z,562.50
2018-04-20T10:02:12.424Z,568.13
2018-04-20T10:03:12.459Z,568.13
2018-04-20T10:04:12.480Z,568.13
2018-04-20T10:05:12.515Z,573.75
2018-04-20T10:06:12.536Z,585.00
2018-04-20T10:07:12.571Z,579.38
2018-04-20T10:08:12.592Z,624.38
2018-04-20T10:09:12.638Z,855.00
2018-04-20T10:10:12.659Z,1558.13
2018-04-20T10:11:12.681Z,2126.25
2018-04-20T10:12:12.713Z,2306.25
2018-04-20T10:13:12.736Z,1850.63
2018-04-20T10:14:12.772Z,1226.25
2018-04-20T10:15:12.803Z,1293.75
2018-04-20T10:16:12.825Z,1845.00
2018-04-20T10:17:12.863Z,2266.88
2018-04-20T10:18:12.892Z,1895.63
2018-04-20T10:19:12.914Z,1265.63
2018-04-20T10:20:12.949Z,1057.50
2018-04-20T10:21:12.981Z,1535.63
2018-04-20T10:22:13.017Z,1923.75
2018-04-20T10:23:13.050Z,1805.63
2018-04-20T10:24:13.072Z,1293.75
2018-04-20T10:25:13.105Z,798.75
2018-04-20T10:26:13.142Z,663.75
2018-04-20T10:27:13.173Z,1490.63
2018-04-20T10:28:13.206Z,3155.63
2018-04-20T10:29:13.241Z,4134.38
2018-04-20T10:30:13.274Z,3785.63
2018-04-20T10:31:13.308Z,3346.88
2018-04-20T10:32:13.342Z,3493.13
2018-04-20T10:33:13.376Z,3982.50
2018-04-20T10:34:13.410Z,3971.25
2018-04-20T10:35:13.446Z,3701.25
2018-04-20T10:36:13.491Z,3571.88
2018-04-20T10:37:13.524Z,3414.38
2018-04-20T10:38:13.558Z,3453.75
2018-04-20T10:39:13.591Z,3403.13
2018-04-20T10:40:13.626Z,3318.75
2018-04-20T10:41:13.673Z,3313.13
2018-04-20T10:42:13.705Z,3307.50
2018-04-20T10:43:13.740Z,2992.50
2018-04-20T10:44:13.790Z,3133.13
2018-04-20T10:45:13.819Z,3543.75
2018-04-20T10:46:13.866Z,3684.38
2018-04-20T10:47:13.900Z,3763.13
2018-04-20T10:48:13.954Z,3988.13
2018-04-20T10:49:13.979Z,4275.00
2018-04-20T10:50:14.015Z,4466.25
2018-04-20T10:51:14.061Z,4488.75
2018-04-20T10:52:14.094Z,4393.13
2018-04-20T10:53:14.139Z,4871.25
2018-04-20T10:54:14.186Z,5135.63
2018-04-20T10:55:14.220Z,4989.38
2018-04-20T10:56:14.267Z,4741.88
2018-04-20T10:57:14.300Z,4606.88
2018-04-20T10:58:14.346Z,4618.13
2018-04-20T10:59:14.381Z,4809.38
2018-04-20T11:00:14.432Z,4640.63
2018-04-20T11:01:14.481Z,4331.25
2018-04-20T11:02:14.507Z,4286.25
2018-04-20T11:03:14.553Z,4336.88
2018-04-20T11:04:14.599Z,4500.00
2018-04-20T11:05:14.634Z,4882.50
2018-04-20T11:06:14.682Z,5040.00
2018-04-20T11:07:14.727Z,5085.00
2018-04-20T11:08:14.760Z,5006.25
2018-04-20T11:09:14.806Z,5141.25
2018-04-20T11:10:14.852Z,6097.50
2018-04-20T11:11:14.895Z,6570.00
2018-04-20T11:12:14.934Z,6041.25
2018-04-20T11:13:14.979Z,5866.88
2018-04-20T11:14:15.025Z,6390.00
2018-04-20T11:15:15.059Z,6283.13
2018-04-20T11:16:15.105Z,6350.63
2018-04-20T11:17:15.152Z,5979.38
2018-04-20T11:18:15.201Z,5608.13
2018-04-20T11:19:15.233Z,5231.25
2018-04-20T11:20:15.285Z,5113.13
2018-04-20T11:21:15.325Z,5101.88
2018-04-20T11:22:15.371Z,5400.00
2018-04-20T11:23:15.418Z,5551.88
2018-04-20T11:24:15.450Z,5394.38
2018-04-20T11:25:15.498Z,5658.75
2018-04-20T11:26:15.544Z,5310.00
2018-04-20T11:27:15.590Z,5568.75
2018-04-20T11:28:15.625Z,5866.88
2018-04-20T11:29:15.671Z,5821.88
2018-04-20T11:30:15.718Z,5568.75
2018-04-20T11:31:15.764Z,5501.25
2018-04-20T11:32:15.810Z,5574.38
2018-04-20T11:33:15.845Z,5861.25
2018-04-20T11:34:15.889Z,5585.63
2018-04-20T11:35:15.937Z,5743.13
2018-04-20T11:36:15.982Z,6080.63
2018-04-20T11:37:16.029Z,5956.88
2018-04-20T11:38:16.078Z,5456.25
2018-04-20T11:39:16.109Z,5608.13
2018-04-20T11:40:16.156Z,5596.88
2018-04-20T11:41:16.202Z,5720.63
2018-04-20T11:42:16.249Z,5416.88
2018-04-20T11:43:16.296Z,5355.00
2018-04-20T11:44:16.338Z,5619.38
2018-04-20T11:45:16.375Z,5748.75
2018-04-20T11:46:16.421Z,5641.88
2018-04-20T11:47:16.468Z,5546.25
2018-04-20T11:48:16.514Z,5675.63
2018-04-20T11:49:16.560Z,5731.88
2018-04-20T11:50:16.596Z,5776.88
2018-04-20T11:51:16.645Z,5765.63
2018-04-20T11:52:16.689Z,5383.13
2018-04-20T11:53:16.738Z,5450.63
2018-04-20T11:54:16.784Z,5782.50
2018-04-20T11:55:16.816Z,5940.00
2018-04-20T11:56:16.861Z,6018.75
2018-04-20T11:57:16.908Z,6103.13
2018-04-20T11:58:16.954Z,5838.75
2018-04-20T11:59:17.000Z,5439.38
2018-04-20T12:00:17.047Z,5630.63
2018-04-20T12:01:17.083Z,5799.38
2018-04-20T12:02:17.175Z,5608.13
2018-04-20T12:03:17.176Z,5557.50
2018-04-20T12:04:17.219Z,5315.63
2018-04-20T12:05:17.254Z,5529.38
2018-04-20T12:06:17.367Z,5788.13
2018-04-20T12:07:17.346Z,5580.00
2018-04-20T12:08:17.397Z,5422.50
2018-04-20T12:09:17.439Z,5315.63
2018-04-20T12:10:17.474Z,5281.88
2018-04-20T12:11:17.519Z,5000.63
2018-04-20T12:12:17.567Z,5079.38
2018-04-20T12:13:17.612Z,5225.63
2018-04-20T12:14:17.650Z,4938.75
2018-04-20T12:15:17.692Z,5000.63
2018-04-20T12:16:17.738Z,4578.75
2018-04-20T12:17:17.785Z,4438.13
2018-04-20T12:18:17.820Z,4348.13
2018-04-20T12:19:17.867Z,4545.00
2018-04-20T12:20:17.912Z,4612.50
2018-04-20T12:21:17.972Z,4618.13
2018-04-20T12:22:17.992Z,4764.38
2018-04-20T12:23:18.038Z,5270.63
2018-04-20T12:24:18.084Z,5236.88
2018-04-20T12:25:18.131Z,4888.13
2018-04-20T12:26:18.166Z,4629.38
2018-04-20T12:27:18.230Z,4545.00
2018-04-20T12:28:18.261Z,4516.88
2018-04-20T12:29:18.305Z,4674.38
2018-04-20T12:30:18.352Z,4995.00
2018-04-20T12:31:18.384Z,4466.25
2018-04-20T12:32:18.432Z,3926.25
2018-04-20T12:33:18.479Z,4426.88
2018-04-20T12:34:18.513Z,4809.38
2018-04-20T12:35:18.560Z,4640.63
2018-04-20T12:36:18.605Z,4561.88
2018-04-20T12:37:18.654Z,4230.00